»·PEaware :: LXJ508 KSFO-KLAX

LXJ508 :: KSFO-KLAX

FLIGHT INFORMATION

Flight Status: Arrived
Operator: Unknown
More flights by this operator :: More flights under this callsign
Pilot: Kolin J. (28867)
Aircraft: BOMBARDIER BD-100 CHALLENGER 300
(CL30)
More flights by this aircraft type
Origin: KSFO San Francisco Intl
United States
Destination: KLAX Los Angeles Intl
United States
More flights between these airports :: More routes between these airports
Route: +WESLA4 EBAYE BURGL IRNMN2
File this flight plan on PilotEdge
Remarks: CALLSIGN "FLEXJET 508"
Altitude:
(Current/Filed)
25,000ft
Speed:
(Current/Filed)
450kts
Departed: 06-May-20 03:39 PM
Arrived: 06-May-20 04:43 PM
Distance/Time
Traveled:
294nm/1:04
Distance/Time
To Go:
Arrived

Flight Plot

Page will automatically refresh every two minutes.

Flight plan parsing failed; only flown route is shown


Map Options




Map Legend


Flown Route
Filed Route
Departure Airport
Arrival Airport
Navaid (VOR, NDB)
Fix

Horizontal Profiles

Position Reports

Time Latitude Longitude Heading Altitude Ground
Speed
06-May-20 15:20 37.627191 -122.383643 296 15ft 0kts
06-May-20 15:21 37.627191 -122.383643 296 15ft 0kts
06-May-20 15:22 37.627191 -122.383643 296 15ft 0kts
06-May-20 15:23 37.627191 -122.383643 296 15ft 0kts
06-May-20 15:24 37.627191 -122.383643 296 15ft 0kts
06-May-20 15:25 37.627191 -122.383643 296 15ft 0kts
06-May-20 15:26 37.627191 -122.383643 296 15ft 0kts
06-May-20 15:27 37.627191 -122.383643 296 15ft 0kts
06-May-20 15:28 37.627191 -122.383643 296 15ft 0kts
06-May-20 15:29 37.627191 -122.383643 296 15ft 0kts
06-May-20 15:30 37.627191 -122.383643 296 15ft 0kts
06-May-20 15:31 37.627191 -122.383643 296 15ft 0kts
06-May-20 15:32 37.627192 -122.383645 296 15ft 0kts
06-May-20 15:33 37.625905 -122.382949 119 19ft 20kts
06-May-20 15:34 37.623490 -122.377202 118 21ft 28kts
06-May-20 15:35 37.620415 -122.369859 118 10ft 29kts
06-May-20 15:36 37.616899 -122.361438 118 7ft 29kts
06-May-20 15:37 37.613917 -122.357471 256 6ft 12kts
06-May-20 15:38 37.622620 -122.378277 296 645ft 177kts
06-May-20 15:39 37.647948 -122.435070 299 2219ft 214kts
06-May-20 15:40 37.664951 -122.514795 249 3892ft 236kts
06-May-20 15:41 37.595187 -122.525793 157 6662ft 283kts
06-May-20 15:42 37.513531 -122.485463 161 9826ft 299kts
06-May-20 15:43 37.438571 -122.404698 133 11192ft 367kts
06-May-20 15:44 37.368216 -122.309135 133 13465ft 381kts
06-May-20 15:45 37.293434 -122.207790 133 15464ft 396kts
06-May-20 15:46 37.218186 -122.106134 134 17198ft 410kts
06-May-20 15:47 37.137900 -121.998016 134 18821ft 421kts
06-May-20 15:48 37.054947 -121.886701 134 20385ft 431kts
06-May-20 15:49 36.964590 -121.765882 134 21861ft 440kts
06-May-20 15:50 36.873752 -121.644862 135 23073ft 448kts
06-May-20 15:51 36.783351 -121.524882 135 24093ft 455kts
06-May-20 15:52 36.686542 -121.396882 135 25110ft 462kts
06-May-20 15:54 36.585161 -121.263405 136 25146ft 486kts
06-May-20 15:55 36.482479 -121.128709 136 25145ft 482kts
06-May-20 15:56 36.385890 -120.996205 133 25122ft 464kts
06-May-20 15:57 36.290671 -120.859602 133 25093ft 466kts
06-May-20 15:58 36.204814 -120.736849 133 25094ft 471kts
06-May-20 15:59 36.117880 -120.613002 133 25094ft 474kts
06-May-20 16:00 36.030743 -120.489323 133 25095ft 476kts
06-May-20 16:01 35.943518 -120.365970 133 25107ft 477kts
06-May-20 16:02 35.854756 -120.252390 150 25108ft 469kts
06-May-20 16:03 35.745707 -120.167947 152 24572ft 453kts
06-May-20 16:04 35.641712 -120.089358 152 23783ft 418kts
06-May-20 16:05 35.541407 -120.013727 152 24172ft 432kts
06-May-20 16:06 35.438803 -119.936552 152 25749ft 437kts
06-May-20 16:07 35.334141 -119.858097 153 27066ft 446kts
06-May-20 16:08 35.228598 -119.767044 147 27074ft 478kts
06-May-20 16:09 35.122055 -119.668309 146 26623ft 473kts
06-May-20 16:10 35.020761 -119.574116 146 26088ft 444kts
06-May-20 16:10 34.940057 -119.498564 146 26037ft 423kts
06-May-20 16:12 34.826571 -119.396856 147 26073ft 442kts
06-May-20 16:13 34.725906 -119.307477 148 25028ft 468kts
06-May-20 16:13 34.638840 -119.231473 148 23241ft 427kts
06-May-20 16:14 34.547642 -119.152372 147 20492ft 383kts
06-May-20 16:16 34.451247 -119.067142 146 17312ft 354kts
06-May-20 16:16 34.386237 -119.010682 146 15050ft 337kts
06-May-20 16:17 34.313301 -118.946237 145 13745ft 329kts
06-May-20 16:18 34.239914 -118.879536 144 12382ft 322kts
06-May-20 16:19 34.171580 -118.816793 143 11927ft 319kts
06-May-20 16:20 34.108883 -118.749642 139 11979ft 291kts
06-May-20 16:21 34.046894 -118.682355 139 9983ft 285kts
06-May-20 16:22 34.023306 -118.592307 97 8073ft 285kts
06-May-20 16:23 34.019806 -118.519035 81 7874ft 218kts
06-May-20 16:24 34.028288 -118.454649 81 6382ft 275kts
06-May-20 16:25 34.037045 -118.390550 81 5020ft 250kts
06-May-20 16:26 34.044322 -118.339608 81 5048ft 232kts
06-May-20 16:27 34.051318 -118.292216 81 4662ft 228kts
06-May-20 16:28 34.059204 -118.239284 81 3630ft 217kts
06-May-20 16:29 34.067399 -118.184755 81 3606ft 216kts
06-May-20 16:30 34.075230 -118.132098 81 3588ft 212kts
06-May-20 16:31 34.079597 -118.073234 117 3623ft 239kts
06-May-20 16:32 34.033991 -118.049948 171 3598ft 211kts
06-May-20 16:33 33.980569 -118.042440 205 3606ft 224kts
06-May-20 16:34 33.959854 -118.091116 269 3738ft 224kts
06-May-20 16:35 33.959802 -118.141461 268 3598ft 209kts
06-May-20 16:36 33.957425 -118.185112 261 3247ft 177kts
06-May-20 16:37 33.953309 -118.226328 261 1925ft 160kts
06-May-20 16:38 33.949581 -118.262420 261 1914ft 160kts
06-May-20 16:39 33.945793 -118.301561 262 1486ft 154kts
06-May-20 16:40 33.941762 -118.338434 263 915ft 153kts
06-May-20 16:41 33.938391 -118.373785 261 282ft 146kts
06-May-20 16:42 33.935342 -118.400586 251 116ft 36kts
06-May-20 16:43 33.934190 -118.401784 132 118ft 11kts
06-May-20 16:44 33.933981 -118.398142 193 111ft 15kts
06-May-20 16:45 33.932709 -118.398526 269 113ft 0kts
06-May-20 16:46 33.932709 -118.398526 269 113ft 0kts
06-May-20 16:47 33.932709 -118.398526 269 113ft 0kts
06-May-20 16:48 33.932709 -118.398526 269 113ft 0kts
06-May-20 16:49 33.932709 -118.398526 269 113ft 0kts
06-May-20 16:50 33.932709 -118.398526 269 113ft 0kts

Navigation Log

Ident Type
Flight plan parsing failed, navigation log unavailable